Řízení letového provozu České republiky  
Aktualizace dat:  07.07.2020 14:47:24 UTC English version
   METEO Zobrazení stránky:  07.07.2020 14:48:36 UTC  
vysvětlivky
METAR EDDB 071420Z 25010KT 210V270 CAVOK 19/05 Q1017 NOSIG=
METAR EDDC 071420Z 29007KT 250V330 CAVOK 19/05 Q1018 NOSIG=
METAR EDDE 071420Z 26008KT 220V300 CAVOK 20/07 Q1019 NOSIG=
METAR EDDF 071420Z 28006KT 210V010 CAVOK 23/04 Q1019 NOSIG=
METAR EDDM 071420Z VRB04KT CAVOK 20/07 Q1020 NOSIG=
METAR EDDN 071420Z 27008KT 160V320 CAVOK 21/06 Q1019 NOSIG=
METAR EDDP 071420Z 26012KT 220V280 CAVOK 22/06 Q1018 NOSIG=
METAR EDDT 071420Z 27011KT 230V310 CAVOK 20/04 Q1017 NOSIG=
METAR EDQM 071320Z 26008KT 210V300 9999 SCT046 18/06 Q1020=
METAR EPBY 071430Z 30012KT 250V340 CAVOK 19/06 Q1015=
METAR EPGD 071430Z 27018KT 9999 FEW032 SCT046 17/08 Q1014=
METAR EPKK 071430Z 30015KT 9999 FEW046 18/07 Q1017=
METAR EPKT 071430Z 30009KT 260V340 CAVOK 17/06 Q1018=
METAR EPLL 071430Z 26011KT CAVOK 17/06 Q1016=
METAR EPPO 071430Z 31011KT 250V320 CAVOK 21/05 Q1016=
METAR EPRZ 071430Z 31010KT 280V350 9999 FEW043CB 18/09 Q1015=
METAR EPWA 071430Z 30007KT 260V330 CAVOK 18/08 Q1015 NOSIG=
METAR EPWR 071430Z 31009KT 270V330 9999 FEW043 19/06 Q1018=
METAR LHBP 071430Z 32013KT CAVOK 21/08 Q1016 NOSIG=
METAR LHSM 071415Z AUTO 01010KT 340V050 9000 NSC 22/06 Q1018 NOSIG=
METAR LKBC 071430Z AUTO 29008KT 260V330 9999 BKN072 18/05 Q1019=
METAR LKCV 071430Z 29008KT 260V320 9999 FEW046 SCT080 19/08 Q1019 NOSIG RMK BLU BLU=
METAR LKKB 071430Z 28005KT 240V330 CAVOK 19/06 Q1019 NOSIG RMK BLU BLU=
METAR LKKU 071400Z 33008KT 270V050 9999 FEW047 19/06 Q1018=
METAR LKKV 071430Z 26009KT 210V300 9999 FEW042 16/03 Q1020 RMK REG QNH 1017=
METAR LKLN 071430Z AUTO VRB05KT 9999 BKN067 19/04 Q1019=
METAR LKMT 071430Z 26009KT 9999 -SHRA BKN038 15/11 Q1019 NOSIG RMK REG QNH 1017=
METAR LKNA 071430Z 32008KT 280V340 9999 FEW040 SCT080 17/08 Q1019 NOSIG RMK BLU BLU=
METAR LKPD 071430Z 29008KT 260V320 9999 SCT045 SCT080 19/07 Q1018 NOSIG RMK BLU BLU=
METAR LKPJ 071430Z AUTO 36005KT 310V020 9999 OVC080 18/09 Q1019=
METAR LKPR 071430Z 28010KT CAVOK 21/05 Q1019 NOSIG RMK REG QNH 1017=
METAR LKTB 071430Z 34011KT 310V020 CAVOK 19/06 Q1019 NOSIG RMK REG QNH 1017=
METAR LKVO 071400Z 29010KT CAVOK 19/06 Q1019=
METAR LOWI 071420Z 07005KT 360V120 9999 FEW065 23/07 Q1017 NOSIG=
METAR LOWL 071420Z 30009KT 260V350 9999 SCT055 20/06 Q1019 NOSIG=
METAR LOWS 071420Z 34005KT 290V060 9999 FEW060 20/07 Q1019 NOSIG=
METAR LOWW 071420Z 33010KT 9999 FEW050 20/07 Q1019 NOSIG=
METAR LZIB 071430Z 32010KT 280V360 CAVOK 21/06 Q1018 NOSIG=
METAR LZKZ 071430Z 02011KT CAVOK 20/09 Q1015 NOSIG=
METAR LZMC 071400Z 32012KT CAVOK 20/05 Q1019=
METAR LZPP 071430Z 30013KT CAVOK 21/07 Q1018=
METAR LZSL 071430Z 33011KT 310V010 9999 FEW062 SCT080 20/06 Q1017=
METAR LZTT 071430Z 25012KT 9999 FEW043 BKN063 16/06 Q1017 NOSIG=
METAR LZZI 071430Z 34008KT 300V020 9999 FEW050 SCT080 19/07 Q1018=